createdAt,value
2022-11-24T00:01:25.760Z,71.38
2022-11-24T00:04:00.384Z,71.27
2022-11-24T00:06:29.049Z,71.45
2022-11-24T00:08:56.973Z,71.08
2022-11-24T00:11:32.747Z,71.15
2022-11-24T00:14:00.485Z,71.15
2022-11-24T00:16:34.267Z,70.79
2022-11-24T00:19:04.783Z,71.32
2022-11-24T00:21:32.282Z,71.18
2022-11-24T00:23:59.802Z,71.58
2022-11-24T00:26:32.868Z,71.01
2022-11-24T00:29:02.948Z,70.46
2022-11-24T00:31:36.260Z,70.97
2022-11-24T00:34:06.897Z,70.93
2022-11-24T00:36:35.616Z,71.07
2022-11-24T00:39:14.580Z,70.92
2022-11-24T00:41:42.840Z,70.78
2022-11-24T00:44:09.415Z,71.14
2022-11-24T00:46:36.311Z,70.64
2022-11-24T00:49:03.136Z,70.91
2022-11-24T00:51:30.419Z,71.34
2022-11-24T00:53:58.868Z,71.18
2022-11-24T00:56:29.623Z,70.71
2022-11-24T00:58:56.275Z,70.97
2022-11-24T01:01:27.038Z,70.86
2022-11-24T01:03:55.236Z,70.89
2022-11-24T01:06:25.279Z,71.30
2022-11-24T01:08:52.557Z,71.10
2022-11-24T01:11:29.230Z,70.69
2022-11-24T01:13:59.217Z,71.90
2022-11-24T01:16:31.857Z,71.29
2022-11-24T01:18:58.314Z,71.89
2022-11-24T01:21:24.765Z,71.63
2022-11-24T01:23:51.351Z,71.21
2022-11-24T01:26:21.484Z,71.00
2022-11-24T01:28:57.009Z,70.69
2022-11-24T01:31:25.546Z,70.79
2022-11-24T01:33:53.246Z,70.67
2022-11-24T01:36:20.806Z,70.85
2022-11-24T01:38:47.405Z,71.32
2022-11-24T01:41:18.411Z,70.75
2022-11-24T01:43:46.334Z,70.26
2022-11-24T01:46:41.790Z,70.58
2022-11-24T01:49:08.161Z,70.56
2022-11-24T01:51:42.984Z,71.02
2022-11-24T01:54:20.543Z,71.42
2022-11-24T01:56:54.009Z,70.98
2022-11-24T01:59:21.878Z,71.80
2022-11-24T02:01:52.703Z,72.08
2022-11-24T02:04:26.141Z,72.27
2022-11-24T02:06:55.870Z,72.30
2022-11-24T02:09:35.892Z,71.27
2022-11-24T02:12:02.770Z,71.56
2022-11-24T02:14:29.737Z,71.79
2022-11-24T02:16:56.296Z,71.78
2022-11-24T02:19:40.178Z,71.77
2022-11-24T02:23:07.180Z,71.45
2022-11-24T02:25:53.486Z,72.02
2022-11-24T02:28:23.814Z,72.05
2022-11-24T02:30:51.406Z,71.82
2022-11-24T02:33:21.718Z,72.13
2022-11-24T02:35:48.367Z,72.41
2022-11-24T02:38:15.070Z,71.74
2022-11-24T02:40:47.805Z,71.29
2022-11-24T02:43:22.427Z,72.00
2022-11-24T02:45:49.201Z,71.64
2022-11-24T02:48:16.592Z,71.77
2022-11-24T02:50:43.389Z,71.80
2022-11-24T02:53:09.906Z,71.29
2022-11-24T02:55:36.359Z,71.88
2022-11-24T02:58:02.954Z,71.02
2022-11-24T03:00:29.427Z,70.87
2022-11-24T03:02:55.896Z,70.95
2022-11-24T03:05:22.522Z,71.66
2022-11-24T03:07:49.046Z,71.66
2022-11-24T03:10:16.582Z,71.51
2022-11-24T03:12:43.176Z,71.68
2022-11-24T03:15:10.354Z,71.33
2022-11-24T03:17:36.912Z,71.51
2022-11-24T03:20:05.114Z,71.25
2022-11-24T03:22:32.098Z,72.18
2022-11-24T03:24:59.179Z,71.65
2022-11-24T03:27:25.719Z,71.84
2022-11-24T03:29:52.146Z,71.49
2022-11-24T03:32:18.721Z,71.21
2022-11-24T03:34:45.144Z,70.97
2022-11-24T03:37:11.890Z,71.21
2022-11-24T03:39:38.427Z,71.21
2022-11-24T03:42:04.961Z,71.32
2022-11-24T03:44:31.621Z,71.63
2022-11-24T03:46:58.248Z,71.55
2022-11-24T03:49:24.688Z,72.01
2022-11-24T03:51:51.145Z,72.08
2022-11-24T03:54:17.584Z,72.50
2022-11-24T03:56:44.010Z,72.32
2022-11-24T03:59:10.503Z,72.50
2022-11-24T04:01:37.006Z,73.49
2022-11-24T04:04:03.497Z,73.11
2022-11-24T04:06:29.976Z,73.39
2022-11-24T04:08:56.424Z,72.73
2022-11-24T04:11:41.660Z,72.37
2022-11-24T04:14:13.308Z,72.51
2022-11-24T04:16:40.325Z,72.39
2022-11-24T04:19:06.952Z,71.96
2022-11-24T04:21:33.390Z,71.70
2022-11-24T04:23:59.824Z,72.00
2022-11-24T04:26:26.285Z,71.62
2022-11-24T04:28:52.718Z,71.32
2022-11-24T04:31:19.282Z,70.97
2022-11-24T04:33:45.767Z,71.66
2022-11-24T04:36:12.354Z,71.61
2022-11-24T04:39:25.672Z,71.66
2022-11-24T04:41:25.253Z,71.83
2022-11-24T04:43:51.751Z,71.61
2022-11-24T04:46:18.479Z,71.68
2022-11-24T04:48:45.019Z,71.54
2022-11-24T04:51:14.190Z,71.13
2022-11-24T04:53:40.794Z,70.90
2022-11-24T04:56:08.125Z,71.18
2022-11-24T04:58:34.868Z,71.81
2022-11-24T05:01:01.399Z,72.64
2022-11-24T05:03:27.928Z,72.36
2022-11-24T05:05:54.354Z,72.04
2022-11-24T05:08:20.860Z,72.37
2022-11-24T05:10:47.278Z,72.51
2022-11-24T05:13:13.885Z,71.96
2022-11-24T05:15:42.163Z,72.03
2022-11-24T05:18:13.361Z,71.57
2022-11-24T05:20:39.851Z,71.48
2022-11-24T05:23:08.558Z,71.77
2022-11-24T05:25:36.516Z,72.18
2022-11-24T05:28:08.652Z,71.80
2022-11-24T05:30:38.592Z,71.74
2022-11-24T05:33:12.274Z,72.30
2022-11-24T05:35:38.878Z,72.80
2022-11-24T05:38:05.381Z,72.80
2022-11-24T05:40:32.355Z,73.23
2022-11-24T05:42:59.480Z,73.03
2022-11-24T05:45:26.145Z,72.53
2022-11-24T05:47:53.234Z,73.48
2022-11-24T05:50:22.713Z,72.75
2022-11-24T05:52:50.218Z,72.95
2022-11-24T05:55:19.350Z,72.82
2022-11-24T05:57:46.101Z,73.13
2022-11-24T06:00:14.875Z,73.37
2022-11-24T06:02:41.621Z,72.93
2022-11-24T06:05:09.072Z,73.17
2022-11-24T06:07:35.642Z,72.74
2022-11-24T06:10:02.185Z,72.71
2022-11-24T06:12:28.615Z,73.29
2022-11-24T06:14:55.074Z,73.71
2022-11-24T06:17:21.581Z,73.33
2022-11-24T06:19:50.088Z,73.58
2022-11-24T06:22:17.532Z,73.53
2022-11-24T06:24:44.114Z,72.99
2022-11-24T06:27:10.588Z,73.03
2022-11-24T06:29:37.133Z,73.15
2022-11-24T06:32:04.091Z,73.02
2022-11-24T06:34:30.657Z,72.99
2022-11-24T06:36:57.329Z,72.81
2022-11-24T06:39:23.832Z,73.19
2022-11-24T06:41:50.965Z,73.05
2022-11-24T06:44:17.423Z,73.25
2022-11-24T06:46:44.172Z,73.39
2022-11-24T06:49:10.764Z,73.70
2022-11-24T06:51:37.290Z,73.04
2022-11-24T06:54:08.954Z,73.32
2022-11-24T06:56:36.145Z,73.16
2022-11-24T06:59:02.980Z,73.32
2022-11-24T07:01:30.571Z,73.54
2022-11-24T07:03:57.932Z,73.43
2022-11-24T07:06:26.249Z,73.17
2022-11-24T07:08:52.890Z,73.47
2022-11-24T07:11:23.818Z,73.45
2022-11-24T07:13:59.486Z,73.82
2022-11-24T07:16:27.784Z,73.62
2022-11-24T07:18:55.330Z,73.98
2022-11-24T07:21:24.700Z,73.58
2022-11-24T07:23:54.406Z,73.36
2022-11-24T07:26:22.972Z,73.35
2022-11-24T07:28:50.705Z,73.28
2022-11-24T07:31:24.899Z,73.17
2022-11-24T07:33:54.495Z,72.92
2022-11-24T07:36:22.642Z,73.40
2022-11-24T07:38:49.137Z,73.18
2022-11-24T07:41:19.501Z,72.74
2022-11-24T07:43:47.645Z,72.44
2022-11-24T07:46:16.919Z,72.20
2022-11-24T07:48:44.030Z,72.56
2022-11-24T07:51:10.508Z,72.81
2022-11-24T07:53:37.696Z,72.56
2022-11-24T07:56:06.462Z,72.95
2022-11-24T07:58:36.265Z,72.45
2022-11-24T08:01:17.672Z,72.21
2022-11-24T08:03:46.325Z,72.51
2022-11-24T08:06:25.067Z,72.63
2022-11-24T08:08:55.159Z,72.98
2022-11-24T08:11:22.010Z,73.06
2022-11-24T08:13:48.506Z,72.93
2022-11-24T08:16:18.755Z,72.90
2022-11-24T08:18:51.739Z,72.90
2022-11-24T08:21:18.701Z,72.86
2022-11-24T08:23:45.796Z,72.66
2022-11-24T08:26:17.630Z,72.51
2022-11-24T08:28:46.393Z,72.55
2022-11-24T08:31:21.143Z,72.80
2022-11-24T08:33:47.871Z,72.97
2022-11-24T08:36:18.856Z,73.04
2022-11-24T08:38:46.112Z,73.37
2022-11-24T08:41:16.418Z,72.98
2022-11-24T08:43:43.282Z,73.30
2022-11-24T08:46:14.180Z,72.65
2022-11-24T08:48:41.405Z,72.68
2022-11-24T08:51:11.765Z,72.40
2022-11-24T08:53:39.654Z,72.94
2022-11-24T08:56:07.505Z,72.92
2022-11-24T08:58:35.389Z,72.60
2022-11-24T09:01:13.147Z,72.63
2022-11-24T09:03:44.997Z,72.91
2022-11-24T09:06:17.953Z,73.75
2022-11-24T09:08:44.549Z,73.52
2022-11-24T09:11:15.449Z,73.43
2022-11-24T09:13:42.642Z,73.60
2022-11-24T09:16:16.793Z,73.03
2022-11-24T09:18:44.401Z,73.10
2022-11-24T09:21:21.917Z,73.03
2022-11-24T09:23:51.242Z,73.04
2022-11-24T09:26:25.469Z,73.28
2022-11-24T09:28:54.533Z,73.24
2022-11-24T09:31:25.714Z,73.21
2022-11-24T09:33:52.510Z,72.84
2022-11-24T09:36:20.864Z,72.87
2022-11-24T09:38:47.662Z,73.04
2022-11-24T09:41:31.962Z,72.79
2022-11-24T09:44:14.112Z,72.51
2022-11-24T09:47:02.098Z,72.83
2022-11-24T09:49:51.587Z,72.85
2022-11-24T09:52:54.652Z,72.70
2022-11-24T09:55:38.164Z,72.79
2022-11-24T09:58:40.446Z,72.57
2022-11-24T10:01:37.754Z,71.98
2022-11-24T10:04:16.292Z,72.28
2022-11-24T10:07:16.382Z,71.72
2022-11-24T10:10:29.044Z,71.20
2022-11-24T10:13:26.461Z,70.98
2022-11-24T10:16:19.980Z,70.46
2022-11-24T10:18:53.908Z,70.88
2022-11-24T10:21:49.504Z,70.33
2022-11-24T10:24:41.119Z,70.31
2022-11-24T10:27:19.744Z,70.42
2022-11-24T10:29:52.421Z,70.93
2022-11-24T10:32:31.990Z,70.34
2022-11-24T10:35:13.299Z,70.43
2022-11-24T10:37:51.154Z,70.03
2022-11-24T10:40:56.929Z,69.71
2022-11-24T10:43:28.289Z,70.13
2022-11-24T10:46:05.508Z,69.92
2022-11-24T10:48:45.533Z,69.60
2022-11-24T10:51:30.267Z,69.09
2022-11-24T10:54:14.762Z,69.51
2022-11-24T10:56:44.519Z,69.76
2022-11-24T10:59:35.051Z,69.40
2022-11-24T11:02:03.423Z,70.66
2022-11-24T11:04:35.644Z,70.26
2022-11-24T11:07:15.291Z,70.32
2022-11-24T11:09:41.810Z,69.63
2022-11-24T11:12:43.437Z,68.91
2022-11-24T11:15:29.858Z,68.78
2022-11-24T11:18:01.271Z,69.19
2022-11-24T11:20:32.553Z,68.89
2022-11-24T11:23:14.823Z,69.34
2022-11-24T11:25:41.430Z,69.37
2022-11-24T11:28:18.381Z,68.35
2022-11-24T11:31:22.483Z,68.29
2022-11-24T11:34:26.695Z,68.60
2022-11-24T11:36:56.268Z,68.87
2022-11-24T11:39:48.443Z,68.17
2022-11-24T11:45:35.437Z,67.69
2022-11-24T11:48:01.934Z,68.06
2022-11-24T11:51:24.822Z,67.79
2022-11-24T11:54:11.314Z,67.92
2022-11-24T11:56:45.065Z,68.30
2022-11-24T11:59:45.556Z,68.39
2022-11-24T12:02:47.165Z,67.22
2022-11-24T12:05:57.722Z,66.36
2022-11-24T12:09:18.209Z,66.70
2022-11-24T12:11:41.985Z,66.37
2022-11-24T12:14:20.097Z,66.50
2022-11-24T12:17:31.458Z,67.01
2022-11-24T12:20:14.571Z,67.40
2022-11-24T12:23:20.045Z,66.82
2022-11-24T12:26:28.387Z,67.65
2022-11-24T12:29:16.480Z,67.75
2022-11-24T12:32:16.185Z,68.14
2022-11-24T12:35:00.013Z,67.99
2022-11-24T12:37:54.785Z,67.53
2022-11-24T12:44:00.047Z,66.94
2022-11-24T12:46:56.272Z,66.71
2022-11-24T12:49:52.613Z,65.92
2022-11-24T12:52:48.101Z,65.13
2022-11-24T12:55:20.452Z,65.21
2022-11-24T12:58:22.139Z,64.91
2022-11-24T13:01:04.238Z,65.60
2022-11-24T13:03:51.052Z,65.61
2022-11-24T13:06:35.309Z,64.93
2022-11-24T13:09:13.225Z,65.10
2022-11-24T13:11:43.671Z,64.99
2022-11-24T13:14:30.589Z,63.60
2022-11-24T13:19:50.013Z,65.40
2022-11-24T13:22:25.438Z,65.33
2022-11-24T13:25:16.405Z,65.23
2022-11-24T13:27:48.305Z,65.73
2022-11-24T13:30:32.978Z,64.53
2022-11-24T13:33:16.217Z,65.83
2022-11-24T13:36:04.211Z,65.36
2022-11-24T13:38:46.158Z,66.12
2022-11-24T13:41:34.264Z,65.76
2022-11-24T13:44:15.915Z,66.02
2022-11-24T13:47:06.730Z,66.45
2022-11-24T13:49:48.763Z,66.60
2022-11-24T13:52:40.188Z,67.43
2022-11-24T13:55:12.621Z,67.72
2022-11-24T13:57:45.949Z,68.07
2022-11-24T14:00:28.164Z,67.64
2022-11-24T14:03:05.863Z,68.30
2022-11-24T14:05:45.915Z,68.09
2022-11-24T14:08:24.192Z,67.86
2022-11-24T14:10:53.768Z,67.76
2022-11-24T14:13:26.113Z,68.11
2022-11-24T14:16:04.157Z,68.30
2022-11-24T14:18:32.378Z,69.05
2022-11-24T14:21:19.882Z,68.79
2022-11-24T14:23:53.854Z,68.59
2022-11-24T14:26:34.213Z,68.11
2022-11-24T14:29:22.660Z,68.26
2022-11-24T14:32:06.144Z,68.60
2022-11-24T14:34:35.964Z,68.71
2022-11-24T14:37:02.789Z,68.90
2022-11-24T14:39:30.181Z,68.78
2022-11-24T14:42:15.573Z,68.34
2022-11-24T14:44:41.938Z,68.73
2022-11-24T14:47:30.149Z,68.33
2022-11-24T14:50:07.550Z,68.25
2022-11-24T14:52:35.250Z,68.45
2022-11-24T14:55:21.374Z,68.56
2022-11-24T14:57:48.408Z,69.18
2022-11-24T15:00:46.082Z,69.14
2022-11-24T15:03:19.387Z,70.31
2022-11-24T15:05:59.427Z,69.88
2022-11-24T15:08:31.508Z,69.44
2022-11-24T15:11:02.137Z,69.61
2022-11-24T15:13:36.973Z,69.84
2022-11-24T15:16:15.908Z,70.64
2022-11-24T15:19:01.009Z,69.85
2022-11-24T15:21:36.774Z,70.25
2022-11-24T15:24:19.153Z,70.00
2022-11-24T15:26:46.965Z,70.33
2022-11-24T15:29:13.514Z,69.85
2022-11-24T15:31:41.866Z,69.51
2022-11-24T15:34:14.025Z,68.97
2022-11-24T15:36:40.514Z,69.45
2022-11-24T15:39:07.026Z,69.61
2022-11-24T15:41:33.883Z,69.69
2022-11-24T15:44:00.478Z,69.83
2022-11-24T15:46:29.632Z,70.29
2022-11-24T15:48:57.138Z,70.08
2022-11-24T15:51:26.576Z,70.58
2022-11-24T15:54:00.628Z,70.83
2022-11-24T15:56:34.609Z,70.26
2022-11-24T15:59:04.151Z,70.52
2022-11-24T16:01:33.750Z,69.85
2022-11-24T16:04:01.371Z,70.11
2022-11-24T16:06:27.933Z,70.00
2022-11-24T16:08:54.591Z,70.53
2022-11-24T16:11:22.041Z,70.19
2022-11-24T16:13:52.963Z,70.33
2022-11-24T16:16:22.238Z,70.80
2022-11-24T16:18:48.773Z,70.57
2022-11-24T16:21:15.276Z,70.93
2022-11-24T16:23:41.894Z,70.82
2022-11-24T16:26:09.879Z,70.88
2022-11-24T16:28:36.360Z,70.98
2022-11-24T16:31:02.916Z,71.04
2022-11-24T16:33:30.175Z,71.04
2022-11-24T16:35:56.813Z,70.89
2022-11-24T16:38:23.488Z,70.99
2022-11-24T16:40:56.182Z,70.92
2022-11-24T16:43:24.280Z,71.23
2022-11-24T16:46:16.871Z,71.00
2022-11-24T16:48:45.425Z,71.10
2022-11-24T16:51:13.462Z,71.37
2022-11-24T16:53:40.844Z,70.73
2022-11-24T16:56:08.378Z,70.90
2022-11-24T16:58:38.388Z,70.34
2022-11-24T17:01:11.432Z,70.31
2022-11-24T17:03:39.408Z,70.55
2022-11-24T17:06:12.001Z,70.68
2022-11-24T17:08:41.061Z,70.91
2022-11-24T17:11:09.472Z,70.53
2022-11-24T17:13:36.351Z,70.76
2022-11-24T17:16:05.535Z,70.62
2022-11-24T17:18:33.328Z,70.83
2022-11-24T17:21:07.838Z,71.09
2022-11-24T17:23:35.852Z,71.27
2022-11-24T17:26:07.150Z,71.07
2022-11-24T17:28:35.479Z,70.94
2022-11-24T17:31:23.255Z,71.24
2022-11-24T17:33:52.896Z,71.28
2022-11-24T17:36:20.043Z,71.01
2022-11-24T17:38:46.769Z,71.13
2022-11-24T17:41:13.240Z,70.96
2022-11-24T17:43:39.905Z,70.79
2022-11-24T17:46:06.754Z,70.84
2022-11-24T17:48:35.639Z,70.57
2022-11-24T17:51:09.783Z,70.76
2022-11-24T17:53:37.543Z,70.48
2022-11-24T17:56:06.380Z,70.33
2022-11-24T17:58:41.306Z,69.94
2022-11-24T18:01:11.283Z,70.00
2022-11-24T18:03:41.833Z,69.87
2022-11-24T18:06:11.978Z,70.13
2022-11-24T18:08:41.913Z,70.15
2022-11-24T18:11:15.960Z,70.06
2022-11-24T18:14:01.028Z,70.54
2022-11-24T18:16:33.341Z,70.66
2022-11-24T18:19:11.473Z,70.41
2022-11-24T18:21:40.788Z,70.40
2022-11-24T18:24:12.526Z,69.92
2022-11-24T18:26:42.936Z,69.56
2022-11-24T18:29:11.481Z,69.82
2022-11-24T18:31:39.058Z,69.87
2022-11-24T18:34:06.713Z,70.70
2022-11-24T18:36:34.877Z,70.80
2022-11-24T18:39:06.920Z,71.00
2022-11-24T18:41:34.142Z,70.90
2022-11-24T18:44:07.817Z,71.13
2022-11-24T18:46:34.751Z,71.29
2022-11-24T18:49:01.388Z,70.96
2022-11-24T18:51:28.290Z,70.73
2022-11-24T18:53:55.292Z,70.57
2022-11-24T18:56:21.886Z,70.78
2022-11-24T18:58:51.872Z,70.66
2022-11-24T19:01:22.465Z,71.14
2022-11-24T19:03:53.607Z,70.70
2022-11-24T19:06:33.338Z,70.40
2022-11-24T19:09:07.342Z,70.49
2022-11-24T19:11:38.564Z,70.08
2022-11-24T19:14:08.460Z,70.08
2022-11-24T19:16:36.215Z,71.26
2022-11-24T19:19:03.907Z,71.36
2022-11-24T19:21:32.980Z,71.13
2022-11-24T19:24:05.075Z,71.31
2022-11-24T19:26:34.820Z,71.16
2022-11-24T19:29:01.674Z,70.90
2022-11-24T19:31:28.269Z,70.61
2022-11-24T19:33:55.299Z,70.46
2022-11-24T19:36:23.042Z,70.36
2022-11-24T19:38:53.555Z,70.49
2022-11-24T19:41:23.329Z,70.92
2022-11-24T19:43:49.921Z,70.77
2022-11-24T19:46:18.588Z,71.30
2022-11-24T19:48:50.178Z,71.09
2022-11-24T19:51:20.324Z,71.82
2022-11-24T19:53:47.573Z,71.89
2022-11-24T19:56:18.899Z,71.94
2022-11-24T19:58:46.858Z,71.60
2022-11-24T20:01:24.602Z,71.30
2022-11-24T20:04:07.947Z,71.46
2022-11-24T20:06:38.647Z,71.48
2022-11-24T20:09:08.547Z,71.66
2022-11-24T20:11:35.147Z,71.45
2022-11-24T20:14:02.285Z,70.96
2022-11-24T20:16:31.539Z,70.63
2022-11-24T20:19:12.547Z,70.67
2022-11-24T20:21:41.673Z,71.10
2022-11-24T20:24:17.266Z,70.79
2022-11-24T20:26:48.550Z,70.51
2022-11-24T20:29:16.394Z,70.04
2022-11-24T20:31:50.285Z,70.49
2022-11-24T20:34:18.196Z,70.10
2022-11-24T20:36:47.336Z,69.98
2022-11-24T20:39:21.787Z,69.36
2022-11-24T20:41:49.406Z,69.46
2022-11-24T20:44:19.598Z,70.33
2022-11-24T20:46:46.575Z,70.92
2022-11-24T20:49:19.250Z,70.83
2022-11-24T20:51:49.994Z,70.99
2022-11-24T20:54:18.226Z,71.41
2022-11-24T20:56:46.363Z,71.80
2022-11-24T20:59:21.462Z,71.78
2022-11-24T21:01:50.005Z,71.47
2022-11-24T21:04:21.658Z,71.14
2022-11-24T21:06:48.673Z,71.37
2022-11-24T21:09:15.314Z,71.64
2022-11-24T21:11:42.101Z,71.62
2022-11-24T21:14:09.585Z,72.03
2022-11-24T21:16:39.150Z,71.50
2022-11-24T21:19:18.104Z,71.39
2022-11-24T21:21:44.777Z,71.62
2022-11-24T21:24:14.768Z,71.39
2022-11-24T21:26:43.389Z,71.21
2022-11-24T21:29:14.064Z,71.28
2022-11-24T21:31:41.449Z,71.22
2022-11-24T21:34:09.435Z,71.86
2022-11-24T21:36:39.962Z,71.86
2022-11-24T21:39:07.190Z,72.18
2022-11-24T21:41:34.242Z,71.67
2022-11-24T21:44:01.189Z,72.63
2022-11-24T21:46:39.019Z,72.25
2022-11-24T21:49:07.217Z,72.15
2022-11-24T21:51:33.744Z,71.52
2022-11-24T21:54:00.257Z,71.68
2022-11-24T21:56:26.757Z,71.76
2022-11-24T21:58:56.641Z,70.64
2022-11-24T22:01:27.921Z,70.79
2022-11-24T22:03:55.283Z,70.19
2022-11-24T22:06:22.054Z,70.56
2022-11-24T22:08:50.623Z,71.02
2022-11-24T22:11:21.270Z,71.19
2022-11-24T22:13:49.149Z,70.98
2022-11-24T22:16:20.097Z,70.46
2022-11-24T22:18:47.627Z,71.31
2022-11-24T22:21:29.187Z,71.51
2022-11-24T22:23:55.708Z,72.04
2022-11-24T22:26:24.032Z,71.88
2022-11-24T22:28:51.595Z,72.43
2022-11-24T22:31:23.047Z,72.44
2022-11-24T22:33:51.405Z,72.91
2022-11-24T22:36:23.081Z,72.83
2022-11-24T22:38:55.992Z,73.33
2022-11-24T22:41:23.322Z,72.63
2022-11-24T22:43:50.283Z,72.36
2022-11-24T22:46:23.341Z,72.00
2022-11-24T22:48:54.609Z,72.16
2022-11-24T22:51:24.924Z,71.84
2022-11-24T22:53:55.395Z,71.86
2022-11-24T22:56:23.059Z,71.77
2022-11-24T22:58:50.882Z,72.21
2022-11-24T23:01:21.619Z,72.37
2022-11-24T23:03:49.040Z,72.53
2022-11-24T23:06:20.244Z,71.93
2022-11-24T23:08:47.241Z,72.25
2022-11-24T23:11:21.329Z,72.13
2022-11-24T23:13:53.925Z,72.20
2022-11-24T23:16:21.051Z,72.01
2022-11-24T23:18:53.792Z,71.84
2022-11-24T23:21:30.880Z,71.31
2022-11-24T23:23:59.660Z,72.22
2022-11-24T23:26:36.407Z,71.99
2022-11-24T23:29:04.710Z,71.61
2022-11-24T23:31:31.636Z,70.87
2022-11-24T23:34:00.817Z,71.09
2022-11-24T23:36:28.765Z,70.94
2022-11-24T23:38:55.684Z,71.09
2022-11-24T23:41:25.632Z,70.70
2022-11-24T23:43:52.623Z,71.42
2022-11-24T23:46:23.194Z,71.87
2022-11-24T23:48:52.162Z,72.17
2022-11-24T23:51:31.343Z,72.31
2022-11-24T23:53:59.410Z,71.87
2022-11-24T23:56:32.279Z,71.77
2022-11-24T23:59:00.262Z,71.12
